Time;durP1;ratioP1;P1;durP2;ratioP2;P2;SDS_P1;SDS_P2;PMS_P1;PMS_P2;Temp;Humidity;BMP_temperature;BMP_pressure;BME280_temperature;BME280_humidity;BME280_pressure;Samples;Min_cycle;Max_cycle;Signal;HPM_P1;HPM_P2
2022/02/27 00:00:19;;;;;;;23.63;12.67;;;4.40;99.90;;;;;;5048414;28;20210;-72
2022/02/27 00:02:46;;;;;;;19.20;10.47;;;4.40;99.90;;;;;;5052571;28;20288;-71
2022/02/27 00:05:13;;;;;;;21.13;10.90;;;4.40;99.90;;;;;;5052908;28;20237;-70
2022/02/27 00:07:42;;;;;;;19.87;10.30;;;4.30;99.90;;;;;;5051352;28;20232;-70
2022/02/27 00:10:09;;;;;;;17.57;10.40;;;4.30;99.90;;;;;;5052360;28;20227;-71
2022/02/27 00:12:36;;;;;;;20.83;11.10;;;4.30;99.90;;;;;;5048485;28;20205;-69
2022/02/27 00:15:05;;;;;;;17.33;11.23;;;4.20;99.90;;;;;;5051588;28;20233;-69
2022/02/27 00:17:32;;;;;;;18.63;9.97;;;4.30;99.90;;;;;;5043782;28;20214;-68
2022/02/27 00:19:59;;;;;;;20.67;10.83;;;4.30;99.90;;;;;;5056835;28;20218;-69
2022/02/27 00:22:26;;;;;;;21.00;11.50;;;4.30;99.90;;;;;;5053585;28;20581;-70
2022/02/27 00:24:54;;;;;;;20.23;11.23;;;4.30;99.90;;;;;;5048380;28;20228;-68
2022/02/27 00:27:21;;;;;;;17.60;10.77;;;4.30;99.90;;;;;;5051275;28;20217;-69
2022/02/27 00:29:48;;;;;;;19.53;11.20;;;4.30;99.90;;;;;;5050974;28;20206;-70
2022/02/27 00:32:15;;;;;;;21.20;11.50;;;4.30;99.90;;;;;;5055299;28;20198;-69
2022/02/27 00:34:42;;;;;;;18.17;11.23;;;4.30;99.90;;;;;;5056778;28;20225;-69
2022/02/27 00:37:09;;;;;;;18.03;11.23;;;4.30;99.90;;;;;;5055965;28;20599;-68
2022/02/27 00:39:36;;;;;;;22.73;11.17;;;4.30;99.90;;;;;;5048772;28;20634;-69
2022/02/27 00:42:04;;;;;;;20.03;11.70;;;4.30;99.90;;;;;;5055826;28;20300;-68
2022/02/27 00:44:31;;;;;;;18.77;11.27;;;4.30;99.90;;;;;;5055395;28;20253;-68
2022/02/27 00:46:58;;;;;;;25.43;10.70;;;4.30;99.90;;;;;;5055761;28;20248;-68
2022/02/27 00:49:25;;;;;;;22.73;10.77;;;4.30;99.90;;;;;;5054374;28;20205;-69
2022/02/27 00:51:52;;;;;;;19.17;10.37;;;4.30;99.90;;;;;;5056689;28;20209;-68
2022/02/27 00:54:19;;;;;;;19.97;9.93;;;4.30;99.90;;;;;;5049605;28;20202;-69
2022/02/27 00:56:46;;;;;;;14.53;9.57;;;4.30;99.90;;;;;;5055758;28;20715;-69
2022/02/27 00:59:14;;;;;;;17.80;9.77;;;4.30;99.90;;;;;;5053812;28;20213;-68
2022/02/27 01:01:41;;;;;;;14.03;9.07;;;4.30;99.90;;;;;;5056074;28;20274;-68
2022/02/27 01:04:08;;;;;;;14.23;8.63;;;4.30;99.90;;;;;;5054089;28;20222;-69
2022/02/27 01:06:35;;;;;;;15.70;8.50;;;4.30;99.90;;;;;;5045005;28;20301;-68
2022/02/27 01:09:02;;;;;;;13.20;8.50;;;4.30;99.90;;;;;;5054310;28;20210;-68
2022/02/27 01:11:33;;;;;;;16.63;8.33;;;4.30;99.90;;;;;;5051119;28;20206;-69
2022/02/27 01:14:00;;;;;;;11.43;6.97;;;4.30;99.90;;;;;;5055276;28;20198;-68
2022/02/27 01:16:30;;;;;;;13.10;6.83;;;4.30;99.90;;;;;;5055202;28;20202;-68
2022/02/27 01:18:57;;;;;;;10.77;6.50;;;4.70;99.90;;;;;;5048069;28;20289;-68
2022/02/27 01:21:24;;;;;;;10.93;6.27;;;4.30;99.90;;;;;;5052127;28;20313;-69
2022/02/27 01:23:51;;;;;;;11.20;6.17;;;4.20;99.90;;;;;;5055028;28;20321;-69
2022/02/27 01:26:18;;;;;;;10.03;5.37;;;4.20;99.90;;;;;;5054479;28;20712;-68
2022/02/27 01:28:45;;;;;;;10.93;5.70;;;4.20;99.90;;;;;;5055165;28;20229;-68
2022/02/27 01:31:12;;;;;;;11.23;5.77;;;4.20;99.90;;;;;;5051669;28;20205;-69
2022/02/27 01:33:40;;;;;;;10.57;5.93;;;4.20;99.90;;;;;;5069088;28;20320;-69
2022/02/27 01:36:07;;;;;;;9.87;5.93;;;4.20;99.90;;;;;;5051042;28;20241;-68
2022/02/27 01:38:34;;;;;;;12.23;5.87;;;4.20;99.90;;;;;;5058115;28;20216;-70
2022/02/27 01:41:01;;;;;;;11.07;5.27;;;4.20;99.90;;;;;;5046549;28;20651;-69
2022/02/27 01:43:28;;;;;;;9.90;5.23;;;4.20;99.90;;;;;;5066243;28;20247;-68
2022/02/27 01:45:56;;;;;;;11.13;5.90;;;4.10;99.90;;;;;;5041248;28;20260;-69
2022/02/27 01:48:22;;;;;;;9.20;5.37;;;4.10;99.90;;;;;;5052323;28;20214;-69
2022/02/27 01:50:51;;;;;;;9.00;4.73;;;4.10;99.90;;;;;;5053889;28;20233;-69
2022/02/27 01:53:18;;;;;;;9.87;5.03;;;4.00;99.90;;;;;;5046139;28;20203;-68
2022/02/27 01:55:46;;;;;;;8.30;5.27;;;4.00;99.90;;;;;;5045772;28;20290;-69
2022/02/27 01:58:13;;;;;;;9.13;4.93;;;4.00;99.90;;;;;;5063161;28;20297;-68
2022/02/27 02:00:40;;;;;;;8.53;5.63;;;4.00;99.90;;;;;;5054563;28;20228;-69
2022/02/27 02:03:07;;;;;;;9.53;4.73;;;3.90;99.90;;;;;;5054323;28;20208;-68
2022/02/27 02:05:34;;;;;;;10.27;4.67;;;4.00;99.90;;;;;;5049844;28;20569;-68
2022/02/27 02:08:02;;;;;;;8.50;5.27;;;3.90;99.90;;;;;;5058470;28;20237;-68
2022/02/27 02:10:29;;;;;;;9.07;5.30;;;4.00;99.90;;;;;;5049886;28;20213;-68
2022/02/27 02:12:56;;;;;;;7.67;4.60;;;3.90;99.90;;;;;;5049695;28;20301;-67
2022/02/27 02:15:23;;;;;;;9.40;4.67;;;3.90;99.90;;;;;;5048082;28;20561;-68
2022/02/27 02:17:50;;;;;;;8.77;4.70;;;3.80;99.90;;;;;;5046691;28;20289;-67
2022/02/27 02:20:19;;;;;;;9.17;5.20;;;3.80;99.90;;;;;;5041169;28;20662;-69
2022/02/27 02:22:46;;;;;;;10.20;5.40;;;3.80;99.90;;;;;;5046930;28;20218;-67
2022/02/27 02:25:13;;;;;;;10.07;4.87;;;3.80;99.90;;;;;;5057790;28;20236;-68
2022/02/27 02:27:40;;;;;;;8.73;4.80;;;3.70;99.90;;;;;;5050696;28;20202;-68
2022/02/27 02:30:09;;;;;;;10.00;5.00;;;3.60;99.90;;;;;;5059054;28;20850;-68
2022/02/27 02:32:47;;;;;;;8.93;4.77;;;3.60;99.90;;;;;;5048923;28;20258;-69
2022/02/27 02:35:14;;;;;;;10.33;5.23;;;3.60;99.90;;;;;;5059657;28;20202;-67
2022/02/27 02:37:42;;;;;;;8.47;4.93;;;3.60;99.90;;;;;;5048089;28;20202;-68
2022/02/27 02:40:10;;;;;;;6.53;4.40;;;3.50;99.90;;;;;;5045469;28;20301;-68
2022/02/27 02:42:39;;;;;;;7.07;4.50;;;3.50;99.90;;;;;;5052112;28;20328;-68
2022/02/27 02:45:07;;;;;;;9.00;4.73;;;3.50;99.90;;;;;;5050760;28;20753;-68
2022/02/27 02:47:34;;;;;;;8.83;4.97;;;3.60;99.90;;;;;;5052189;28;20270;-67
2022/02/27 02:50:01;;;;;;;8.43;5.00;;;3.60;99.90;;;;;;5049237;28;20202;-68
2022/02/27 02:52:28;;;;;;;6.97;4.70;;;3.60;99.90;;;;;;5053411;28;20597;-68
2022/02/27 02:54:56;;;;;;;8.77;4.23;;;3.50;99.90;;;;;;5053012;28;20212;-68
2022/02/27 02:57:23;;;;;;;8.63;4.50;;;3.60;99.90;;;;;;5044835;28;20211;-68
2022/02/27 02:59:50;;;;;;;9.43;4.80;;;3.50;99.90;;;;;;5052414;28;20293;-68
2022/02/27 03:02:17;;;;;;;8.30;4.83;;;3.60;99.90;;;;;;5052657;28;20206;-67
2022/02/27 03:04:44;;;;;;;7.97;4.73;;;3.60;99.90;;;;;;5048622;28;20312;-67
2022/02/27 03:07:11;;;;;;;5.27;3.70;;;3.60;99.90;;;;;;5052666;28;20210;-68
2022/02/27 03:09:38;;;;;;;7.97;4.57;;;3.60;99.90;;;;;;5042179;28;20289;-68
2022/02/27 03:12:07;;;;;;;8.20;4.30;;;3.50;99.90;;;;;;5052486;28;20202;-67
2022/02/27 03:14:34;;;;;;;8.87;4.63;;;3.50;99.90;;;;;;5053145;28;20208;-68
2022/02/27 03:17:01;;;;;;;9.70;4.40;;;3.50;99.90;;;;;;5053162;28;20229;-68
2022/02/27 03:19:28;;;;;;;10.13;4.67;;;3.50;99.90;;;;;;5052589;28;20213;-67
2022/02/27 03:21:55;;;;;;;8.53;4.83;;;3.40;99.90;;;;;;5051777;28;20234;-68
2022/02/27 03:24:22;;;;;;;10.47;4.67;;;3.40;99.90;;;;;;5056011;28;20224;-68
2022/02/27 03:26:49;;;;;;;7.33;4.77;;;3.40;99.90;;;;;;5049825;28;20214;-69
2022/02/27 03:29:17;;;;;;;11.53;5.07;;;3.30;99.90;;;;;;5051162;28;20202;-68
2022/02/27 03:31:44;;;;;;;11.07;5.03;;;3.30;99.90;;;;;;5052088;28;20293;-68
2022/02/27 03:34:11;;;;;;;8.73;4.93;;;3.20;99.90;;;;;;5046754;28;20198;-68
2022/02/27 03:36:38;;;;;;;9.97;5.37;;;3.20;99.90;;;;;;5043748;28;20236;-68
2022/02/27 03:39:05;;;;;;;10.80;5.07;;;3.20;99.90;;;;;;5050136;28;20237;-69
2022/02/27 03:41:32;;;;;;;15.17;5.80;;;3.10;99.90;;;;;;5047750;28;20218;-68
2022/02/27 03:43:59;;;;;;;11.60;5.57;;;3.10;99.90;;;;;;5053497;28;20265;-68
2022/02/27 03:46:27;;;;;;;10.97;5.37;;;2.90;99.90;;;;;;5064594;28;20320;-69
2022/02/27 03:48:54;;;;;;;11.70;5.93;;;2.80;99.90;;;;;;5052764;28;20667;-69
2022/02/27 03:51:20;;;;;;;10.97;6.10;;;2.80;99.90;;;;;;5052635;28;20198;-69
2022/02/27 03:53:47;;;;;;;6.33;4.93;;;2.70;99.90;;;;;;5052496;28;20624;-68
2022/02/27 03:56:14;;;;;;;6.70;4.90;;;2.60;99.90;;;;;;5054282;28;20312;-69
2022/02/27 03:58:41;;;;;;;11.90;5.60;;;2.60;99.90;;;;;;5054005;28;20216;-69
2022/02/27 04:01:08;;;;;;;9.10;6.07;;;2.60;99.90;;;;;;5055468;28;20626;-69
2022/02/27 04:03:36;;;;;;;12.03;6.17;;;2.60;99.90;;;;;;5055387;28;20674;-68
2022/02/27 04:06:03;;;;;;;11.97;6.43;;;2.50;99.90;;;;;;5051652;28;20221;-68
2022/02/27 04:08:30;;;;;;;13.07;6.23;;;2.60;99.90;;;;;;5060579;28;20209;-68
2022/02/27 04:10:57;;;;;;;10.60;6.53;;;2.50;99.90;;;;;;5054975;28;20286;-70
2022/02/27 04:13:23;;;;;;;12.07;6.50;;;2.50;99.90;;;;;;5047325;28;20206;-68
2022/02/27 04:15:50;;;;;;;9.77;6.00;;;2.50;99.90;;;;;;5051744;28;20292;-67
2022/02/27 04:18:17;;;;;;;10.00;5.70;;;2.50;99.90;;;;;;5040376;28;20296;-68
2022/02/27 04:20:45;;;;;;;12.33;6.23;;;2.50;99.90;;;;;;5050862;28;20324;-69
2022/02/27 04:23:12;;;;;;;10.07;6.03;;;2.50;99.90;;;;;;5052146;28;20659;-68
2022/02/27 04:25:39;;;;;;;12.90;7.10;;;2.50;99.90;;;;;;5052796;28;20317;-68
2022/02/27 04:28:06;;;;;;;11.40;6.23;;;2.50;99.90;;;;;;5051808;28;20252;-67
2022/02/27 04:30:33;;;;;;;12.67;6.73;;;2.50;99.90;;;;;;5052217;28;20216;-68
2022/02/27 04:33:00;;;;;;;9.03;6.23;;;2.50;99.90;;;;;;5044218;28;20670;-68
2022/02/27 04:35:27;;;;;;;9.00;6.07;;;2.40;99.90;;;;;;5054493;28;20563;-68
2022/02/27 04:37:55;;;;;;;10.70;6.50;;;2.30;99.90;;;;;;5054415;28;20289;-67
2022/02/27 04:40:22;;;;;;;10.80;6.97;;;2.30;99.90;;;;;;5055627;28;20274;-68
2022/02/27 04:42:49;;;;;;;11.70;7.13;;;2.30;99.90;;;;;;5040920;28;20729;-68
2022/02/27 04:45:16;;;;;;;10.50;6.10;;;2.30;99.90;;;;;;5050274;28;20718;-68
2022/02/27 04:47:42;;;;;;;9.30;6.53;;;2.30;99.90;;;;;;5054867;28;20710;-68
2022/02/27 04:50:10;;;;;;;10.70;6.10;;;2.40;99.90;;;;;;5055515;28;20206;-68
2022/02/27 04:52:37;;;;;;;12.07;6.50;;;2.30;99.90;;;;;;5054266;28;20245;-69
2022/02/27 04:55:06;;;;;;;12.37;6.57;;;2.30;99.90;;;;;;5054330;28;20620;-68
2022/02/27 04:57:33;;;;;;;9.27;5.90;;;2.30;99.90;;;;;;5055331;28;20212;-68
2022/02/27 05:00:00;;;;;;;11.73;5.60;;;2.30;99.90;;;;;;5055847;28;20213;-67
2022/02/27 05:02:27;;;;;;;10.47;6.23;;;2.20;99.90;;;;;;5055113;28;20558;-67
2022/02/27 05:04:54;;;;;;;9.30;5.90;;;2.20;99.90;;;;;;5052421;28;20668;-68
2022/02/27 05:07:21;;;;;;;13.30;6.67;;;2.20;99.90;;;;;;5053716;28;20297;-68
2022/02/27 05:09:47;;;;;;;10.53;5.93;;;2.10;99.90;;;;;;5054860;28;20202;-67
2022/02/27 05:12:16;;;;;;;12.43;6.00;;;2.10;99.90;;;;;;5054377;28;20206;-68
2022/02/27 05:14:42;;;;;;;14.37;6.27;;;2.10;99.90;;;;;;5047612;28;20229;-68
2022/02/27 05:17:09;;;;;;;10.90;6.07;;;2.20;99.90;;;;;;5046579;28;20207;-67
2022/02/27 05:19:37;;;;;;;14.23;6.50;;;2.20;99.90;;;;;;5051808;28;20216;-69
2022/02/27 05:22:04;;;;;;;8.33;5.50;;;2.20;99.90;;;;;;5055204;28;20262;-69
2022/02/27 05:24:31;;;;;;;11.23;6.43;;;2.20;99.90;;;;;;5046915;28;20298;-68
2022/02/27 05:26:58;;;;;;;10.43;5.73;;;2.20;99.90;;;;;;5052599;28;20233;-69
2022/02/27 05:29:26;;;;;;;9.00;5.60;;;2.20;99.90;;;;;;5061513;28;20292;-69
2022/02/27 05:31:53;;;;;;;8.70;6.33;;;2.20;99.90;;;;;;5054182;28;20293;-69
2022/02/27 05:34:22;;;;;;;10.57;6.60;;;2.20;99.90;;;;;;5054979;28;20229;-68
2022/02/27 05:36:48;;;;;;;9.60;6.43;;;2.30;99.90;;;;;;5052057;28;20214;-68
2022/02/27 05:39:15;;;;;;;11.53;6.33;;;2.20;99.90;;;;;;5049556;28;20271;-68
2022/02/27 05:41:43;;;;;;;11.83;6.43;;;2.20;99.90;;;;;;5063873;28;20300;-68
2022/02/27 05:44:10;;;;;;;13.90;6.77;;;2.20;99.90;;;;;;5048364;28;20237;-69
2022/02/27 05:46:38;;;;;;;12.87;7.40;;;2.20;99.90;;;;;;5040232;28;20226;-68
2022/02/27 05:49:05;;;;;;;12.97;6.23;;;2.20;99.90;;;;;;5048440;28;20220;-68
2022/02/27 05:51:31;;;;;;;11.70;7.83;;;2.10;99.90;;;;;;5050923;28;20206;-69
2022/02/27 05:53:58;;;;;;;13.07;6.87;;;2.00;99.90;;;;;;5054736;28;20292;-69
2022/02/27 05:56:25;;;;;;;12.20;6.50;;;2.00;99.90;;;;;;5052383;28;20637;-68
2022/02/27 05:58:52;;;;;;;14.40;7.03;;;2.00;99.90;;;;;;5047218;28;20659;-67
2022/02/27 06:01:19;;;;;;;10.93;6.73;;;2.00;99.90;;;;;;5048644;28;20233;-67
2022/02/27 06:03:47;;;;;;;12.73;7.70;;;2.00;99.90;;;;;;5053948;28;20212;-68
2022/02/27 06:06:14;;;;;;;11.60;6.90;;;2.00;99.90;;;;;;5047898;28;20309;-68
2022/02/27 06:08:41;;;;;;;16.20;7.83;;;2.00;99.90;;;;;;5044237;28;20212;-68
2022/02/27 06:11:08;;;;;;;10.30;6.83;;;2.00;99.90;;;;;;5054206;28;20296;-68
2022/02/27 06:13:35;;;;;;;12.80;7.20;;;2.00;99.90;;;;;;5054331;28;20304;-68
2022/02/27 06:16:01;;;;;;;13.07;7.57;;;2.00;99.90;;;;;;5052911;28;20198;-68
2022/02/27 06:18:28;;;;;;;10.53;7.30;;;2.00;99.90;;;;;;5055050;28;20566;-69
2022/02/27 06:20:56;;;;;;;17.53;7.73;;;2.10;99.90;;;;;;5054710;28;20232;-68
2022/02/27 06:23:23;;;;;;;13.17;7.43;;;2.10;99.90;;;;;;5057921;28;20233;-70
2022/02/27 06:25:50;;;;;;;13.20;7.60;;;2.00;99.90;;;;;;5057953;28;20307;-69
2022/02/27 06:28:17;;;;;;;13.30;6.93;;;2.00;99.90;;;;;;5060442;28;20202;-69
2022/02/27 06:30:44;;;;;;;11.67;7.47;;;2.00;99.90;;;;;;5063160;28;20240;-69
2022/02/27 06:33:11;;;;;;;12.83;7.80;;;2.10;99.90;;;;;;5060164;28;20665;-69
2022/02/27 06:35:38;;;;;;;12.83;7.67;;;2.20;99.90;;;;;;5054644;28;20234;-68
2022/02/27 06:38:06;;;;;;;13.97;7.90;;;2.20;99.90;;;;;;5062735;28;20216;-68
2022/02/27 06:40:33;;;;;;;12.23;6.63;;;2.30;99.90;;;;;;5058695;28;20237;-68
2022/02/27 06:43:05;;;;;;;14.20;7.47;;;2.20;99.90;;;;;;5058731;28;20233;-69
2022/02/27 06:45:32;;;;;;;15.93;7.57;;;2.30;99.90;;;;;;5055013;28;20221;-69
2022/02/27 06:47:59;;;;;;;12.83;7.50;;;2.30;99.90;;;;;;5054755;28;20205;-68
2022/02/27 06:50:26;;;;;;;10.53;7.63;;;2.30;99.90;;;;;;5049121;28;20245;-68
2022/02/27 06:52:53;;;;;;;12.27;7.17;;;2.30;99.90;;;;;;5053753;28;20293;-68
2022/02/27 06:55:22;;;;;;;15.70;7.43;;;2.30;99.90;;;;;;5053418;28;20197;-68
2022/02/27 06:57:50;;;;;;;16.43;7.67;;;2.30;99.90;;;;;;5052764;28;20592;-68
2022/02/27 07:00:19;;;;;;;11.27;6.87;;;2.30;99.90;;;;;;5056147;28;20582;-68
2022/02/27 07:02:46;;;;;;;12.43;6.93;;;2.40;99.90;;;;;;5055352;28;20253;-69
2022/02/27 07:05:14;;;;;;;10.27;6.53;;;2.40;99.90;;;;;;5046769;28;20213;-69
2022/02/27 07:07:40;;;;;;;9.80;6.73;;;2.40;99.90;;;;;;5049067;28;20212;-68
2022/02/27 07:10:08;;;;;;;10.50;7.03;;;2.30;99.90;;;;;;5053213;28;20573;-69
2022/02/27 07:12:38;;;;;;;12.60;7.20;;;2.30;99.90;;;;;;5046129;28;20581;-69
2022/02/27 07:15:07;;;;;;;9.67;6.67;;;2.30;99.90;;;;;;5048350;28;20214;-69
2022/02/27 07:17:34;;;;;;;11.97;6.67;;;2.30;99.90;;;;;;5053774;28;20213;-69
2022/02/27 07:20:01;;;;;;;10.70;6.97;;;2.40;99.90;;;;;;5043679;28;20214;-67
2022/02/27 07:22:27;;;;;;;13.03;7.07;;;2.50;99.90;;;;;;5048804;28;20664;-68
2022/02/27 07:24:55;;;;;;;15.00;7.53;;;2.50;99.90;;;;;;5050833;28;20201;-68
2022/02/27 07:27:22;;;;;;;13.60;7.63;;;2.60;99.90;;;;;;5051177;28;20779;-68
2022/02/27 07:29:51;;;;;;;14.27;8.87;;;2.60;99.90;;;;;;5060696;28;20311;-68
2022/02/27 07:32:18;;;;;;;17.90;9.30;;;2.60;99.90;;;;;;5048213;28;20293;-69
2022/02/27 07:34:45;;;;;;;13.00;8.30;;;2.60;99.90;;;;;;5043491;28;20206;-68
2022/02/27 07:37:12;;;;;;;12.87;8.10;;;2.60;99.90;;;;;;5051076;28;20241;-67
2022/02/27 07:39:38;;;;;;;11.20;6.80;;;2.60;99.90;;;;;;5054472;28;20341;-68
2022/02/27 07:42:05;;;;;;;13.20;7.03;;;2.60;99.90;;;;;;5045926;28;20237;-68
2022/02/27 07:44:33;;;;;;;9.87;6.60;;;2.60;99.90;;;;;;5052447;28;20290;-68
2022/02/27 07:47:02;;;;;;;9.13;6.27;;;2.60;99.90;;;;;;5052753;28;20650;-69
2022/02/27 07:49:29;;;;;;;10.63;6.40;;;2.60;99.90;;;;;;5060862;28;20225;-70
2022/02/27 07:51:56;;;;;;;10.83;6.80;;;2.60;99.90;;;;;;5052591;28;20212;-68
2022/02/27 07:54:24;;;;;;;10.80;6.93;;;2.70;99.90;;;;;;5051090;28;20686;-70
2022/02/27 07:56:50;;;;;;;11.37;6.90;;;2.70;99.90;;;;;;5051199;28;20286;-70
2022/02/27 07:59:18;;;;;;;11.70;6.50;;;2.80;99.90;;;;;;5049021;28;20212;-70
2022/02/27 08:01:45;;;;;;;12.43;7.33;;;2.80;99.90;;;;;;5058215;28;20201;-70
2022/02/27 08:04:13;;;;;;;12.87;7.23;;;2.90;99.90;;;;;;5052703;28;20202;-68
2022/02/27 08:06:40;;;;;;;12.87;7.70;;;2.90;99.90;;;;;;5051065;28;20722;-70
2022/02/27 08:09:07;;;;;;;12.33;7.80;;;3.00;99.90;;;;;;5067454;28;20633;-69
2022/02/27 08:11:34;;;;;;;14.57;8.60;;;3.00;99.90;;;;;;5062319;28;20226;-70
2022/02/27 08:14:02;;;;;;;17.60;9.43;;;2.90;99.90;;;;;;5056444;28;20585;-71
2022/02/27 08:16:29;;;;;;;17.17;9.63;;;2.90;99.90;;;;;;5052597;28;20323;-70
2022/02/27 08:18:56;;;;;;;20.03;9.90;;;2.90;99.90;;;;;;5065872;28;20273;-71
2022/02/27 08:21:24;;;;;;;19.92;12.30;;;2.90;99.90;;;;;;5066289;28;20445;-72
2022/02/27 08:23:51;;;;;;;18.73;11.30;;;2.90;99.90;;;;;;5058159;28;20678;-70
2022/02/27 08:26:18;;;;;;;19.33;10.53;;;2.90;99.90;;;;;;5060637;28;20225;-70
2022/02/27 08:28:45;;;;;;;18.48;11.07;;;3.00;99.90;;;;;;5049460;28;20488;-71
2022/02/27 08:31:12;;;;;;;17.37;9.63;;;3.00;99.90;;;;;;5066270;28;20224;-72
2022/02/27 08:33:39;;;;;;;14.33;9.33;;;3.00;99.90;;;;;;5066335;28;20229;-71
2022/02/27 08:36:06;;;;;;;16.53;9.30;;;3.00;99.90;;;;;;5066555;28;20268;-71
2022/02/27 08:38:35;;;;;;;13.90;8.37;;;2.90;99.90;;;;;;5066192;28;20206;-71
2022/02/27 08:41:02;;;;;;;10.13;7.10;;;3.00;99.90;;;;;;5064837;28;20306;-70
2022/02/27 08:43:29;;;;;;;12.50;8.10;;;3.00;99.90;;;;;;5059018;28;20544;-70
2022/02/27 08:45:55;;;;;;;9.80;6.60;;;3.00;99.90;;;;;;5053610;28;20237;-72
2022/02/27 08:48:24;;;;;;;10.47;6.37;;;3.00;99.90;;;;;;5058065;28;20248;-73
2022/02/27 08:50:52;;;;;;;10.53;6.77;;;3.00;99.90;;;;;;5054068;28;20252;-71
2022/02/27 08:53:19;;;;;;;9.53;6.77;;;3.00;99.90;;;;;;5042574;28;20576;-71
2022/02/27 08:55:49;;;;;;;8.70;5.37;;;3.00;99.90;;;;;;5060541;28;20208;-70
2022/02/27 08:58:16;;;;;;;9.53;6.30;;;3.10;99.90;;;;;;5058378;28;20217;-71
2022/02/27 09:00:43;;;;;;;9.50;6.50;;;3.10;99.90;;;;;;5052669;28;20212;-67
2022/02/27 09:03:10;;;;;;;8.83;6.00;;;3.10;99.90;;;;;;5047154;28;20207;-69
2022/02/27 09:05:37;;;;;;;12.53;6.70;;;3.20;99.90;;;;;;5048312;28;20213;-69
2022/02/27 09:08:04;;;;;;;10.13;7.03;;;3.30;99.90;;;;;;5050820;28;20663;-67
2022/02/27 09:10:31;;;;;;;11.87;8.47;;;3.40;99.90;;;;;;5054749;28;20297;-69
2022/02/27 09:12:59;;;;;;;11.60;7.77;;;3.40;99.90;;;;;;5059838;28;20232;-71
2022/02/27 09:15:26;;;;;;;18.50;11.13;;;3.50;99.90;;;;;;5051498;28;20293;-70
2022/02/27 09:17:53;;;;;;;15.30;9.20;;;3.50;99.90;;;;;;5058184;28;20300;-69
2022/02/27 09:20:20;;;;;;;14.60;9.83;;;3.50;99.90;;;;;;5051131;28;20272;-68
2022/02/27 09:22:47;;;;;;;11.57;8.57;;;3.50;99.90;;;;;;5054388;28;20237;-69
2022/02/27 09:25:14;;;;;;;14.90;8.53;;;3.50;99.90;;;;;;5051813;28;20206;-70
2022/02/27 09:27:41;;;;;;;12.50;8.43;;;3.40;99.90;;;;;;5050164;28;20234;-69
2022/02/27 09:30:12;;;;;;;11.00;7.60;;;3.40;99.90;;;;;;5054116;28;20257;-68
2022/02/27 09:32:39;;;;;;;12.67;8.30;;;3.40;99.90;;;;;;5053985;28;20723;-69
2022/02/27 09:35:07;;;;;;;11.53;7.43;;;3.40;99.90;;;;;;5055201;28;20718;-69
2022/02/27 09:37:34;;;;;;;15.83;8.90;;;3.50;99.90;;;;;;5050959;28;20210;-70
2022/02/27 09:40:01;;;;;;;14.73;8.87;;;3.50;99.90;;;;;;5045878;28;20202;-69
2022/02/27 09:42:30;;;;;;;12.07;7.83;;;3.50;99.90;;;;;;5049954;28;20298;-69
2022/02/27 09:44:58;;;;;;;14.23;8.80;;;3.60;99.90;;;;;;5046532;28;20660;-66
2022/02/27 09:47:27;;;;;;;14.07;9.03;;;3.60;99.90;;;;;;5053939;28;20293;-68
2022/02/27 09:49:54;;;;;;;11.83;7.87;;;3.60;99.90;;;;;;5053207;28;20778;-66
2022/02/27 09:52:22;;;;;;;15.53;9.20;;;3.60;99.90;;;;;;5053943;28;20206;-67
2022/02/27 09:54:50;;;;;;;15.73;10.17;;;3.60;99.90;;;;;;5055271;28;20260;-71
2022/02/27 09:57:21;;;;;;;16.17;12.57;;;3.60;99.90;;;;;;5059060;28;20442;-68
2022/02/27 09:59:48;;;;;;;15.87;10.30;;;3.70;99.90;;;;;;5058784;28;20647;-66
2022/02/27 10:02:17;;;;;;;19.23;15.13;;;3.60;99.90;;;;;;5050220;28;20535;-69
2022/02/27 10:04:48;;;;;;;17.47;12.17;;;3.60;99.90;;;;;;5047573;28;20297;-68
2022/02/27 10:07:16;;;;;;;21.33;14.27;;;3.60;99.90;;;;;;5055954;28;20490;-68
2022/02/27 10:09:44;;;;;;;23.27;14.30;;;3.50;99.90;;;;;;5051106;28;20293;-67
2022/02/27 10:12:16;;;;;;;22.47;14.10;;;3.50;99.90;;;;;;5048789;28;20293;-67
2022/02/27 10:14:55;;;;;;;23.47;12.60;;;3.50;99.90;;;;;;5056193;28;20593;-67
2022/02/27 10:17:32;;;;;;;20.25;14.20;;;3.60;99.90;;;;;;5051815;28;20467;-67
2022/02/27 10:20:00;;;;;;;20.23;12.27;;;3.60;99.90;;;;;;5056294;28;20818;-68
2022/02/27 10:22:32;;;;;;;17.70;10.77;;;3.70;99.90;;;;;;5055004;28;20557;-67
2022/02/27 10:24:59;;;;;;;17.70;11.33;;;3.70;99.90;;;;;;5056789;28;20224;-66
2022/02/27 10:27:40;;;;;;;21.67;16.45;;;3.80;99.90;;;;;;5051533;28;20471;-66
2022/02/27 10:30:22;;;;;;;19.40;14.00;;;3.80;99.90;;;;;;5052738;28;20230;-67
2022/02/27 10:32:50;;;;;;;20.63;12.73;;;3.80;99.90;;;;;;5046891;28;20203;-68
2022/02/27 10:35:41;;;;;;;15.67;11.40;;;3.90;99.90;;;;;;5048437;28;20218;-68
2022/02/27 10:38:09;;;;;;;18.30;11.67;;;3.90;99.90;;;;;;5049234;28;20292;-65
2022/02/27 10:40:37;;;;;;;19.93;14.23;;;4.00;99.90;;;;;;5051248;28;20473;-66
2022/02/27 10:43:06;;;;;;;19.58;15.73;;;4.00;99.90;;;;;;5051282;28;20457;-67
2022/02/27 10:45:33;;;;;;;24.50;16.92;;;4.10;99.90;;;;;;5051866;28;20485;-67
2022/02/27 10:48:06;;;;;;;15.93;11.73;;;4.00;99.90;;;;;;5043529;28;20664;-69
2022/02/27 10:50:34;;;;;;;17.00;11.00;;;4.00;99.90;;;;;;5052748;28;20693;-68
2022/02/27 10:53:03;;;;;;;19.58;12.18;;;4.00;99.90;;;;;;5055954;28;20528;-67
2022/02/27 10:55:32;;;;;;;19.45;14.05;;;4.00;99.90;;;;;;5061046;28;20438;-69
2022/02/27 10:57:59;;;;;;;18.87;14.67;;;4.00;99.90;;;;;;5052496;28;20465;-68
2022/02/27 11:00:28;;;;;;;18.30;12.30;;;4.00;99.90;;;;;;5056352;28;20284;-69
2022/02/27 11:02:56;;;;;;;18.00;11.47;;;4.00;99.90;;;;;;5055283;28;20206;-69
2022/02/27 11:05:25;;;;;;;15.02;10.75;;;4.00;99.90;;;;;;5055628;28;20992;-68
2022/02/27 11:07:56;;;;;;;19.07;11.83;;;4.10;99.90;;;;;;5048823;28;20221;-70
2022/02/27 11:10:25;;;;;;;15.20;10.77;;;4.10;99.90;;;;;;5059052;28;20216;-67
2022/02/27 11:12:54;;;;;;;14.70;10.20;;;4.20;99.90;;;;;;5050528;28;20205;-66
2022/02/27 11:15:22;;;;;;;13.07;9.20;;;4.30;99.90;;;;;;5049026;28;20208;-70
2022/02/27 11:17:50;;;;;;;13.70;8.93;;;4.30;99.90;;;;;;5051711;28;20202;-69
2022/02/27 11:20:19;;;;;;;14.37;9.27;;;4.30;99.90;;;;;;5051242;28;20224;-67
2022/02/27 11:22:46;;;;;;;12.13;8.43;;;4.40;99.90;;;;;;5052183;28;20213;-67
2022/02/27 11:25:13;;;;;;;12.13;8.27;;;4.40;99.90;;;;;;5051095;28;20663;-67
2022/02/27 11:27:52;;;;;;;13.47;8.80;;;4.50;99.90;;;;;;5043204;28;20258;-69
2022/02/27 11:30:21;;;;;;;12.63;8.03;;;4.50;99.90;;;;;;5056269;28;20253;-67
2022/02/27 11:32:52;;;;;;;15.00;8.43;;;4.70;99.90;;;;;;5050582;28;20272;-68
2022/02/27 11:35:43;;;;;;;14.50;9.37;;;4.80;99.90;;;;;;5052653;28;20738;-67
2022/02/27 11:38:13;;;;;;;12.50;8.53;;;5.10;99.90;;;;;;5048587;28;20288;-68
2022/02/27 11:40:48;;;;;;;13.77;9.30;;;5.90;99.90;;;;;;5053815;28;20201;-71
2022/02/27 11:43:37;;;;;;;15.80;9.13;;;6.50;99.90;;;;;;5055736;28;20244;-67
2022/02/27 11:46:04;;;;;;;14.67;9.53;;;8.50;99.90;;;;;;5055764;28;20250;-66
2022/02/27 11:49:03;;;;;;;11.50;8.40;;;13.30;99.90;;;;;;5063648;28;20813;-67
2022/02/27 11:52:07;;;;;;;10.37;7.07;;;17.90;91.70;;;;;;5049339;28;20206;-69
2022/02/27 11:54:44;;;;;;;11.37;8.13;;;20.40;58.00;;;;;;5064995;28;20642;-68
2022/02/27 11:57:14;;;;;;;12.13;8.10;;;19.80;55.50;;;;;;5070815;28;20625;-68
2022/02/27 11:59:54;;;;;;;9.67;7.87;;;19.70;52.60;;;;;;5052672;28;20201;-68
2022/02/27 12:02:23;;;;;;;9.50;8.20;;;21.40;54.00;;;;;;5046412;28;20730;-67
2022/02/27 12:04:52;;;;;;;10.60;8.45;;;24.30;47.40;;;;;;5055576;28;20228;-67
2022/02/27 12:07:19;;;;;;;10.32;8.13;;;27.30;41.90;;;;;;5055043;28;20777;-65
2022/02/27 12:09:56;;;;;;;9.40;7.32;;;30.20;36.50;;;;;;5051055;28;20221;-68
2022/02/27 12:12:56;;;;;;;9.35;7.30;;;32.30;32.40;;;;;;5054145;28;20205;-67
2022/02/27 12:15:30;;;;;;;8.40;7.10;;;33.40;30.00;;;;;;5045253;28;20229;-68
2022/02/27 12:18:01;;;;;;;9.90;7.18;;;34.50;28.80;;;;;;5061254;28;20594;-68
2022/02/27 12:20:53;;;;;;;8.77;7.10;;;35.80;28.30;;;;;;5056264;28;20300;-69
2022/02/27 12:23:48;;;;;;;9.05;7.20;;;36.60;26.90;;;;;;5054693;28;20609;-68
2022/02/27 12:26:42;;;;;;;8.95;6.35;;;36.90;25.80;;;;;;5050841;28;20206;-68
2022/02/27 12:29:19;;;;;;;9.32;6.75;;;37.50;25.00;;;;;;5052706;28;20231;-68
2022/02/27 12:31:47;;;;;;;8.68;7.25;;;37.50;24.70;;;;;;5040411;28;20237;-68
2022/02/27 12:34:18;;;;;;;7.13;6.15;;;37.70;24.80;;;;;;5051837;28;20605;-68
2022/02/27 12:36:49;;;;;;;10.57;6.50;;;38.30;24.10;;;;;;5051099;28;20264;-69
2022/02/27 12:39:18;;;;;;;7.07;5.55;;;39.10;23.90;;;;;;5052820;28;20265;-69
2022/02/27 12:41:47;;;;;;;6.13;5.53;;;39.40;23.00;;;;;;5042652;28;20215;-68
2022/02/27 12:44:19;;;;;;;7.30;6.18;;;39.70;22.70;;;;;;5051101;28;20234;-67
2022/02/27 12:46:47;;;;;;;6.65;5.72;;;40.30;22.50;;;;;;5051773;28;20294;-68
2022/02/27 12:52:00;;;;;;;6.82;5.80;;;41.70;21.50;;;;;;5050514;28;20209;-68
2022/02/27 12:54:34;;;;;;;7.45;6.18;;;42.40;21.20;;;;;;5054124;28;20593;-68